createdAt,value
2018-11-29T00:03:04.285Z,0.80
2018-11-29T00:05:58.718Z,1.17
2018-11-29T00:08:54.165Z,0.70
2018-11-29T00:11:29.173Z,0.70
2018-11-29T00:17:53.899Z,1.33
2018-11-29T00:23:24.309Z,1.27
2018-11-29T00:26:03.025Z,1.60
2018-11-29T00:28:40.621Z,1.23
2018-11-29T00:34:33.570Z,0.87
2018-11-29T00:37:19.299Z,0.93
2018-11-29T00:39:58.830Z,0.87
2018-11-29T00:42:50.952Z,1.33
2018-11-29T00:45:29.477Z,1.40
2018-11-29T00:50:57.041Z,0.93
2018-11-29T00:57:56.453Z,0.90
2018-11-29T01:00:40.519Z,1.27
2018-11-29T01:04:22.892Z,1.47
2018-11-29T01:07:04.244Z,1.60
2018-11-29T01:18:22.772Z,1.33
2018-11-29T01:21:10.028Z,1.20
2018-11-29T01:23:50.794Z,2.50
2018-11-29T01:26:32.599Z,1.83
2018-11-29T01:29:19.960Z,1.13
2018-11-29T01:31:54.317Z,1.97
2018-11-29T01:34:29.893Z,1.37
2018-11-29T01:37:14.622Z,2.10
2018-11-29T01:41:25.175Z,3.07
2018-11-29T01:43:59.271Z,2.87
2018-11-29T01:47:09.835Z,2.40
2018-11-29T01:52:29.587Z,1.43
2018-11-29T01:55:16.900Z,2.10
2018-11-29T02:12:42.782Z,1.80
2018-11-29T02:15:47.749Z,1.83
2018-11-29T02:18:46.403Z,2.43
2018-11-29T02:36:09.834Z,2.43
2018-11-29T02:38:44.565Z,2.57
2018-11-29T02:51:06.321Z,3.00
2018-11-29T02:53:47.142Z,2.60
2018-11-29T02:56:22.994Z,1.63
2018-11-29T02:58:57.471Z,2.50
2018-11-29T03:01:31.837Z,2.63
2018-11-29T03:04:06.294Z,2.33
2018-11-29T03:06:41.460Z,3.77
2018-11-29T03:09:15.662Z,2.23
2018-11-29T03:11:50.137Z,2.23
2018-11-29T03:14:31.004Z,2.67
2018-11-29T03:17:05.422Z,2.67
2018-11-29T03:19:39.770Z,2.77
2018-11-29T03:22:14.464Z,2.50
2018-11-29T03:28:18.292Z,2.77
2018-11-29T03:30:52.344Z,2.60
2018-11-29T03:33:26.265Z,2.57
2018-11-29T03:36:01.120Z,2.47
2018-11-29T03:38:37.755Z,2.90
2018-11-29T03:41:12.073Z,3.93
2018-11-29T03:44:07.240Z,3.00
2018-11-29T03:46:47.930Z,3.40
2018-11-29T03:49:26.795Z,2.97
2018-11-29T03:52:00.900Z,3.50
2018-11-29T03:54:35.003Z,3.33
2018-11-29T03:57:09.288Z,2.40
2018-11-29T03:59:45.147Z,4.43
2018-11-29T04:02:25.311Z,3.53
2018-11-29T04:09:28.208Z,4.23
2018-11-29T04:12:02.235Z,4.47
2018-11-29T04:14:36.827Z,3.20
2018-11-29T04:17:10.941Z,4.30
2018-11-29T04:19:45.343Z,3.80
2018-11-29T04:22:19.402Z,2.80
2018-11-29T04:24:53.409Z,2.97
2018-11-29T04:27:28.706Z,5.73
2018-11-29T04:30:02.973Z,4.83
2018-11-29T04:32:37.522Z,3.30
2018-11-29T04:35:11.850Z,5.53
2018-11-29T04:37:46.498Z,3.40
2018-11-29T04:40:21.033Z,4.13
2018-11-29T04:42:59.247Z,4.20
2018-11-29T04:46:42.710Z,5.53
2018-11-29T04:49:21.452Z,5.23
2018-11-29T04:51:55.979Z,3.63
2018-11-29T04:54:36.335Z,4.37
2018-11-29T04:57:10.297Z,4.83
2018-11-29T04:59:44.627Z,5.60
2018-11-29T05:05:20.916Z,5.70
2018-11-29T05:10:35.096Z,6.27
2018-11-29T05:13:09.932Z,6.67
2018-11-29T05:15:43.810Z,8.50
2018-11-29T05:18:22.755Z,6.87
2018-11-29T05:20:57.714Z,8.03
2018-11-29T05:23:33.807Z,6.70
2018-11-29T05:26:09.579Z,7.57
2018-11-29T05:28:45.227Z,8.03
2018-11-29T05:31:19.271Z,6.23
2018-11-29T05:33:54.189Z,8.47
2018-11-29T05:36:28.486Z,8.20
2018-11-29T05:39:11.022Z,7.43
2018-11-29T05:44:37.115Z,6.03
2018-11-29T05:47:12.629Z,8.47
2018-11-29T05:49:49.890Z,6.63
2018-11-29T05:52:25.105Z,6.73
2018-11-29T05:54:59.807Z,7.07
2018-11-29T05:57:33.942Z,6.90
2018-11-29T06:00:09.528Z,5.73
2018-11-29T06:02:44.554Z,8.93
2018-11-29T06:10:31.384Z,9.83
2018-11-29T06:13:05.279Z,6.87
2018-11-29T06:15:40.215Z,6.63
2018-11-29T06:18:14.168Z,6.67
2018-11-29T06:20:48.032Z,7.13
2018-11-29T06:23:26.090Z,7.80
2018-11-29T06:26:01.391Z,6.33
2018-11-29T06:28:42.247Z,6.80
2018-11-29T06:33:26.949Z,8.67
2018-11-29T06:36:03.672Z,6.17
2018-11-29T06:38:37.560Z,6.90
2018-11-29T06:41:15.145Z,8.57
2018-11-29T06:43:49.360Z,12.23
2018-11-29T06:46:23.819Z,6.97
2018-11-29T06:48:58.061Z,8.77
2018-11-29T06:51:32.713Z,6.13
2018-11-29T06:54:06.655Z,9.00
2018-11-29T06:56:42.933Z,8.00
2018-11-29T06:59:19.011Z,7.00
2018-11-29T07:01:53.051Z,8.83
2018-11-29T07:04:28.509Z,7.67
2018-11-29T07:07:08.055Z,6.93
2018-11-29T07:09:45.335Z,8.03
2018-11-29T07:12:20.504Z,7.87
2018-11-29T07:14:55.802Z,6.63
2018-11-29T07:17:29.984Z,6.37
2018-11-29T07:20:05.452Z,6.13
2018-11-29T07:22:40.509Z,11.40
2018-11-29T07:28:25.117Z,7.63
2018-11-29T07:31:05.605Z,8.23
2018-11-29T07:33:40.866Z,6.70
2018-11-29T07:36:17.301Z,7.37
2018-11-29T07:38:56.764Z,8.23
2018-11-29T07:41:30.815Z,7.33
2018-11-29T07:44:07.385Z,8.27
2018-11-29T07:49:32.144Z,9.23
2018-11-29T07:52:06.514Z,8.40
2018-11-29T07:54:41.278Z,7.37
2018-11-29T07:57:30.888Z,8.33
2018-11-29T08:00:05.657Z,8.20
2018-11-29T08:02:40.321Z,7.23
2018-11-29T08:05:15.689Z,7.50
2018-11-29T08:07:51.195Z,13.97
2018-11-29T08:13:11.451Z,7.47
2018-11-29T08:15:45.621Z,7.40
2018-11-29T08:21:18.738Z,7.20
2018-11-29T08:23:53.475Z,7.60
2018-11-29T08:26:27.573Z,7.97
2018-11-29T08:29:01.666Z,7.00
2018-11-29T08:31:35.966Z,7.33
2018-11-29T08:34:10.080Z,9.00
2018-11-29T08:36:44.284Z,8.27
2018-11-29T08:39:19.002Z,9.07
2018-11-29T08:41:53.127Z,9.63
2018-11-29T08:44:27.185Z,9.17
2018-11-29T08:47:11.309Z,9.47
2018-11-29T08:49:45.349Z,11.67
2018-11-29T08:52:19.617Z,10.23
2018-11-29T08:54:53.633Z,9.33
2018-11-29T08:57:28.688Z,12.57
2018-11-29T09:00:03.991Z,9.20
2018-11-29T09:02:38.642Z,11.73
2018-11-29T09:05:13.126Z,10.73
2018-11-29T09:07:48.191Z,11.37
2018-11-29T09:10:23.736Z,11.57
2018-11-29T09:12:58.957Z,11.10
2018-11-29T09:15:37.291Z,12.77
2018-11-29T09:18:12.427Z,13.03
2018-11-29T09:20:46.317Z,11.33
2018-11-29T09:23:20.059Z,12.20
2018-11-29T09:25:55.155Z,11.13
2018-11-29T09:28:29.047Z,9.63
2018-11-29T09:31:03.230Z,12.43
2018-11-29T09:33:37.747Z,10.80
2018-11-29T09:36:11.688Z,9.07
2018-11-29T09:38:46.039Z,10.60
2018-11-29T09:41:20.679Z,11.17
2018-11-29T09:43:58.734Z,10.00
2018-11-29T09:46:33.263Z,8.53
2018-11-29T09:49:07.719Z,8.57
2018-11-29T09:51:43.170Z,9.13
2018-11-29T09:54:18.802Z,9.60
2018-11-29T09:56:53.078Z,8.63
2018-11-29T09:59:27.251Z,9.50
2018-11-29T10:02:03.979Z,9.93
2018-11-29T10:04:39.125Z,8.70
2018-11-29T10:07:13.262Z,9.10
2018-11-29T10:09:47.237Z,9.40
2018-11-29T10:15:28.396Z,11.17
2018-11-29T10:18:02.468Z,9.47
2018-11-29T10:20:36.645Z,8.70
2018-11-29T10:25:54.039Z,9.47
2018-11-29T10:28:28.285Z,11.17
2018-11-29T10:31:02.807Z,10.57
2018-11-29T10:33:36.957Z,10.13
2018-11-29T10:36:11.437Z,9.57
2018-11-29T10:38:46.533Z,10.83
2018-11-29T10:41:21.247Z,12.63
2018-11-29T10:57:42.099Z,12.80
2018-11-29T11:03:21.034Z,11.30
2018-11-29T11:05:54.977Z,12.73
2018-11-29T11:08:28.916Z,13.27
2018-11-29T11:11:07.223Z,11.07
2018-11-29T11:13:41.033Z,12.30
2018-11-29T11:16:15.245Z,13.90
2018-11-29T11:18:49.157Z,13.07
2018-11-29T11:24:02.019Z,12.27
2018-11-29T11:26:36.396Z,10.60
2018-11-29T11:29:10.491Z,13.47
2018-11-29T11:31:49.698Z,13.17
2018-11-29T11:34:23.951Z,11.73
2018-11-29T11:37:10.048Z,12.63
2018-11-29T11:39:44.293Z,10.13
2018-11-29T11:42:19.015Z,12.20
2018-11-29T11:44:54.165Z,11.97
2018-11-29T11:47:28.903Z,13.87
2018-11-29T11:50:03.499Z,13.03
2018-11-29T11:52:38.136Z,11.87
2018-11-29T11:55:18.695Z,13.87
2018-11-29T11:57:49.236Z,14.40
2018-11-29T12:00:24.690Z,13.30
2018-11-29T12:03:13.947Z,16.63
2018-11-29T12:05:47.951Z,12.47
2018-11-29T12:08:22.091Z,14.07
2018-11-29T12:10:56.241Z,13.27
2018-11-29T12:13:30.297Z,13.60
2018-11-29T12:16:04.262Z,13.40
2018-11-29T12:18:38.333Z,14.60
2018-11-29T12:21:12.356Z,14.27
2018-11-29T12:24:01.446Z,12.10
2018-11-29T12:26:35.448Z,13.80
2018-11-29T12:29:09.749Z,12.87
2018-11-29T12:31:44.170Z,14.63
2018-11-29T12:34:20.033Z,14.40
2018-11-29T12:36:58.198Z,13.17
2018-11-29T12:39:32.144Z,13.83
2018-11-29T12:42:07.972Z,15.17
2018-11-29T12:44:42.204Z,13.40
2018-11-29T12:47:18.210Z,13.17
2018-11-29T12:53:39.570Z,14.50
2018-11-29T12:56:25.980Z,15.67
2018-11-29T13:02:04.652Z,15.23
2018-11-29T13:07:57.273Z,11.97
2018-11-29T13:13:12.837Z,13.03
2018-11-29T13:15:54.479Z,13.33
2018-11-29T13:18:28.636Z,11.63
2018-11-29T13:21:03.694Z,11.80
2018-11-29T13:23:37.859Z,14.67
2018-11-29T13:26:13.775Z,12.53
2018-11-29T13:28:48.163Z,13.37
2018-11-29T13:31:31.525Z,13.60
2018-11-29T13:34:06.061Z,10.80
2018-11-29T13:36:40.096Z,11.30
2018-11-29T13:42:01.099Z,13.40
2018-11-29T13:44:39.835Z,11.50
2018-11-29T13:47:15.639Z,13.73
2018-11-29T13:49:50.837Z,14.70
2018-11-29T13:52:36.353Z,12.10
2018-11-29T13:55:17.303Z,10.97
2018-11-29T13:57:53.200Z,10.80
2018-11-29T14:00:27.423Z,11.83
2018-11-29T14:03:02.542Z,13.67
2018-11-29T14:05:42.401Z,11.90
2018-11-29T14:08:23.061Z,11.83
2018-11-29T14:10:57.308Z,12.40
2018-11-29T14:13:32.006Z,11.37
2018-11-29T14:16:06.574Z,13.23
2018-11-29T14:18:41.168Z,10.80
2018-11-29T14:21:16.448Z,11.87
2018-11-29T14:23:50.870Z,12.70
2018-11-29T14:26:25.277Z,14.70
2018-11-29T14:29:07.286Z,12.93
2018-11-29T14:31:41.892Z,11.20
2018-11-29T14:34:17.659Z,10.30
2018-11-29T14:41:22.294Z,11.90
2018-11-29T14:43:56.714Z,11.87
2018-11-29T14:48:40.082Z,12.03
2018-11-29T14:51:24.609Z,10.37
2018-11-29T14:54:02.423Z,10.83
2018-11-29T14:57:36.199Z,9.43
2018-11-29T15:00:20.547Z,11.70
2018-11-29T15:02:55.024Z,9.93
2018-11-29T15:57:01.214Z,11.07
2018-11-29T15:59:37.912Z,11.03
2018-11-29T16:02:12.746Z,11.00
2018-11-29T16:04:47.414Z,10.03
2018-11-29T16:07:21.377Z,9.30
2018-11-29T16:09:55.177Z,11.40
2018-11-29T16:12:28.956Z,10.20
2018-11-29T16:15:02.981Z,10.37
2018-11-29T16:17:38.342Z,8.50
2018-11-29T16:20:13.783Z,9.00
2018-11-29T16:22:48.147Z,9.50
2018-11-29T16:25:22.190Z,8.90
2018-11-29T16:27:56.298Z,9.77
2018-11-29T16:30:44.712Z,8.80
2018-11-29T16:33:19.917Z,9.77
2018-11-29T16:35:54.424Z,10.50
2018-11-29T16:38:28.278Z,8.57
2018-11-29T16:41:02.518Z,10.53
2018-11-29T16:43:37.407Z,7.80
2018-11-29T16:46:12.256Z,8.90
2018-11-29T16:48:46.972Z,12.53
2018-11-29T16:51:20.755Z,11.37
2018-11-29T16:53:54.463Z,9.80
2018-11-29T16:56:28.258Z,8.47
2018-11-29T16:59:02.844Z,9.00
2018-11-29T17:01:36.742Z,12.33
2018-11-29T17:04:11.128Z,10.13
2018-11-29T17:06:45.212Z,7.27
2018-11-29T17:09:19.869Z,8.77
2018-11-29T17:11:53.917Z,7.70
2018-11-29T17:14:28.281Z,8.40
2018-11-29T17:17:02.067Z,8.27
2018-11-29T17:19:36.614Z,9.70
2018-11-29T17:22:11.630Z,8.30
2018-11-29T17:24:45.286Z,7.87
2018-11-29T17:27:19.400Z,8.57
2018-11-29T17:29:53.139Z,8.90
2018-11-29T17:32:27.534Z,7.30
2018-11-29T17:35:02.098Z,7.63
2018-11-29T17:37:37.454Z,7.00
2018-11-29T17:40:13.103Z,11.87
2018-11-29T17:42:47.664Z,8.47
2018-11-29T17:45:23.046Z,8.97
2018-11-29T17:47:59.680Z,9.10
2018-11-29T17:50:36.253Z,7.33
2018-11-29T17:53:10.299Z,8.87
2018-11-29T17:55:44.056Z,7.87
2018-11-29T17:58:17.893Z,7.97
2018-11-29T18:00:52.919Z,7.63
2018-11-29T18:03:27.453Z,7.63
2018-11-29T18:06:02.111Z,8.40
2018-11-29T18:08:36.167Z,5.90
2018-11-29T18:11:10.398Z,5.60
2018-11-29T18:13:45.197Z,5.30
2018-11-29T18:16:19.357Z,6.73
2018-11-29T18:18:53.656Z,5.83
2018-11-29T18:21:28.591Z,7.30
2018-11-29T18:24:02.311Z,4.60
2018-11-29T18:26:36.306Z,7.60
2018-11-29T18:29:10.283Z,7.77
2018-11-29T18:31:44.247Z,6.03
2018-11-29T18:34:18.315Z,8.33
2018-11-29T18:36:53.730Z,5.00
2018-11-29T18:39:27.810Z,8.30
2018-11-29T18:42:01.851Z,8.40
2018-11-29T18:44:37.017Z,7.73
2018-11-29T18:47:10.946Z,9.17
2018-11-29T18:49:45.078Z,5.90
2018-11-29T18:52:19.414Z,6.73
2018-11-29T18:54:53.538Z,6.00
2018-11-29T18:57:28.037Z,5.60
2018-11-29T19:00:02.216Z,7.30
2018-11-29T19:02:37.107Z,7.57
2018-11-29T19:05:10.899Z,7.40
2018-11-29T19:07:45.729Z,6.03
2018-11-29T19:10:20.956Z,6.63
2018-11-29T19:12:59.187Z,8.23
2018-11-29T19:15:34.813Z,6.77
2018-11-29T19:18:10.734Z,6.23
2018-11-29T19:20:42.853Z,6.83
2018-11-29T19:23:17.044Z,6.77
2018-11-29T19:25:51.175Z,5.90
2018-11-29T19:28:25.205Z,6.57
2018-11-29T19:30:58.947Z,7.43
2018-11-29T19:33:33.475Z,7.37
2018-11-29T19:36:07.384Z,6.27
2018-11-29T19:38:41.108Z,7.60
2018-11-29T19:41:15.305Z,6.87
2018-11-29T19:43:49.352Z,6.60
2018-11-29T19:46:23.322Z,5.80
2018-11-29T19:48:58.221Z,6.73
2018-11-29T19:51:31.892Z,3.93
2018-11-29T19:54:05.664Z,4.80
2018-11-29T19:56:39.607Z,6.23
2018-11-29T19:59:13.509Z,4.40
2018-11-29T20:01:48.683Z,6.27
2018-11-29T20:04:21.450Z,5.53
2018-11-29T20:06:59.272Z,5.10
2018-11-29T20:09:33.031Z,4.23
2018-11-29T20:12:08.085Z,6.27
2018-11-29T20:14:42.279Z,4.67
2018-11-29T20:17:16.384Z,4.47
2018-11-29T20:19:50.360Z,4.90
2018-11-29T20:22:24.621Z,5.37
2018-11-29T20:24:58.683Z,5.90
2018-11-29T20:27:33.103Z,6.27
2018-11-29T20:32:49.520Z,5.67
2018-11-29T20:35:23.383Z,5.93
2018-11-29T20:38:03.557Z,7.60
2018-11-29T20:40:38.648Z,5.23
2018-11-29T20:43:12.892Z,5.40
2018-11-29T20:48:37.000Z,5.30
2018-11-29T20:51:12.498Z,6.67
2018-11-29T20:54:02.578Z,6.27
2018-11-29T20:56:37.318Z,6.47
2018-11-29T20:59:13.542Z,8.90
2018-11-29T21:01:47.495Z,5.85
2018-11-29T21:04:22.934Z,5.30
2018-11-29T21:07:36.370Z,6.60
2018-11-29T21:10:11.581Z,4.53
2018-11-29T21:12:47.758Z,6.73
2018-11-29T21:15:21.788Z,5.53
2018-11-29T21:17:57.529Z,5.63
2018-11-29T21:23:16.736Z,5.07
2018-11-29T21:25:52.131Z,5.30
2018-11-29T21:28:26.874Z,4.60
2018-11-29T21:31:00.859Z,4.33
2018-11-29T21:33:38.322Z,5.37
2018-11-29T21:36:14.155Z,4.33
2018-11-29T21:38:48.455Z,4.40
2018-11-29T21:41:22.384Z,4.63
2018-11-29T21:43:56.706Z,6.43
2018-11-29T21:46:32.530Z,6.53
2018-11-29T21:49:06.576Z,5.23
2018-11-29T21:51:40.394Z,4.60
2018-11-29T21:54:16.918Z,5.43
2018-11-29T21:56:53.002Z,5.87
2018-11-29T21:59:28.433Z,5.93
2018-11-29T22:05:02.497Z,6.43
2018-11-29T22:07:36.641Z,7.20
2018-11-29T22:10:10.957Z,5.73
2018-11-29T22:12:45.645Z,7.20
2018-11-29T22:15:20.873Z,7.83
2018-11-29T22:18:31.110Z,8.00
2018-11-29T22:21:11.566Z,8.43
2018-11-29T22:23:46.695Z,7.27
2018-11-29T22:32:07.505Z,8.63
2018-11-29T22:37:58.213Z,8.47
2018-11-29T22:40:32.293Z,9.13
2018-11-29T22:45:45.413Z,9.23
2018-11-29T22:48:19.608Z,8.47
2018-11-29T22:50:53.996Z,10.17
2018-11-29T22:53:28.990Z,8.97
2018-11-29T22:56:07.260Z,10.97
2018-11-29T23:01:27.077Z,10.37
2018-11-29T23:04:01.390Z,13.00
2018-11-29T23:06:42.833Z,10.93
2018-11-29T23:09:16.650Z,9.73
2018-11-29T23:12:05.594Z,11.77
2018-11-29T23:14:39.570Z,9.93
2018-11-29T23:17:13.476Z,11.33
2018-11-29T23:19:50.180Z,12.17
2018-11-29T23:22:26.079Z,12.23
2018-11-29T23:25:02.419Z,12.30
2018-11-29T23:27:37.741Z,10.53
2018-11-29T23:30:13.206Z,10.60
2018-11-29T23:35:35.076Z,13.20
2018-11-29T23:38:10.084Z,13.10
2018-11-29T23:40:44.667Z,10.93
2018-11-29T23:43:18.638Z,11.90
2018-11-29T23:45:56.956Z,10.70
2018-11-29T23:48:32.042Z,9.43
2018-11-29T23:51:07.288Z,11.23
2018-11-29T23:53:48.527Z,11.17
2018-11-29T23:56:26.526Z,11.40
2018-11-29T23:59:03.172Z,10.50
